KSEG/SEG METAR and TAF weather

Enter ICAO airport designator
Station Type Date Time Source
KSEG METAR 2018/12/10 07:53 UTC NOAA

KSEG 100753Z AUTO 00000KT 7SM CLR M08/M10 A3016 RMK AO2 SLP220 I1000 T10831100


Station Type Date Time Source
KSEG Decoded METAR 2018/12/10 07:53 UTC NOAA

SELINSGROVE PENN VALLEY AIRPORT , PA, United States (KSEG) 40-49N 076-52W 134M
Dec 10, 2018 - 02:53 AM EST / 2018.12.10 0753 UTC
Wind: Calm:0
Visibility: 7 mile(s):0
Sky conditions: clear
Temperature: 17.1 F (-8.3 C)
Dew Point: 14.0 F (-10.0 C)
Relative Humidity: 87%
Pressure (altimeter): 30.16 in. Hg (1021 hPa)
ob: KSEG 100753Z AUTO 00000KT 7SM CLR M08/M10 A3016 RMK AO2 SLP220 I1000 T10831100
cycle: 8

Station Type Date Time Source
KSEG TAF UTC NOAA

Error!


Example: see airport list